Weather reports worldwide

Advertisment
Comiso, Italy (16475): temperature & dewpoint: 15.05.2019 16:00:00 - 21.05.2019 16:00:00 (CEST)Comiso, Italy (16475): wind speed: 15.05.2019 16:00:00 - 21.05.2019 16:00:00 (CEST)Comiso, Italy (16475): wind direction: 15.05.2019 16:00:00 - 21.05.2019 16:00:00 (CEST)Comiso, Italy (16475): visibility: 15.05.2019 16:00:00 - 21.05.2019 16:00:00 (CEST)
Date & Time tt [°C] td [°C] ff [km/h] ff [kn] dd vv [km]
21.05.2019 16:00:00 - - - - - -
21.05.2019 15:00:00 21,0 10,0 13 7 WSW 10
21.05.2019 14:00:00 22,0 11,0 16 9 W 10
21.05.2019 13:00:00 21,0 10,0 13 7 WSW 10
21.05.2019 12:00:00 21,0 10,0 13 7 W 10
21.05.2019 11:00:00 20,0 9,0 13 7 W 10
21.05.2019 10:00:00 19,0 8,0 5 3 W 10
21.05.2019 09:00:00 17,0 9,0 5 3 WSW 10
21.05.2019 08:00:00 16,0 10,0 2 1 - 10
21.05.2019 07:00:00 12,0 9,0 8 4 E 10
21.05.2019 06:00:00 - - - - - -
21.05.2019 05:00:00 - - - - - -
21.05.2019 04:00:00 - - - - - -
21.05.2019 03:00:00 - - - - - -
21.05.2019 02:00:00 - - - - - -
21.05.2019 01:00:00 - - - - - -
21.05.2019 00:00:00 - - - - - -
20.05.2019 23:00:00 13,0 11,0 5 3 SSE 10
20.05.2019 22:00:00 14,0 11,0 4 2 - 10
20.05.2019 21:00:00 15,0 10,0 11 6 WSW 10
20.05.2019 20:00:00 17,0 11,0 16 9 W 10
20.05.2019 19:00:00 19,0 10,0 22 12 W 10
20.05.2019 18:00:00 20,0 10,0 21 11 W 10
20.05.2019 17:00:00 21,0 8,0 21 11 W 10
20.05.2019 16:00:00 22,0 9,0 24 13 W 10
20.05.2019 15:00:00 21,0 9,0 24 13 W 10
20.05.2019 14:00:00 22,0 7,0 24 13 W 10
20.05.2019 13:00:00 22,0 6,0 21 11 W 10
20.05.2019 12:00:00 22,0 5,0 15 8 W 10
20.05.2019 11:00:00 20,0 8,0 9 5 WNW 10
20.05.2019 10:00:00 20,0 7,0 11 6 NW 10
20.05.2019 09:00:00 - - - - - -
20.05.2019 08:00:00 17,0 12,0 5 3 SE 10
20.05.2019 07:00:00 14,0 13,0 5 3 NE 10
20.05.2019 06:00:00 - - - - - -
20.05.2019 05:00:00 - - - - - -
20.05.2019 04:00:00 - - - - - -
20.05.2019 03:00:00 - - - - - -
20.05.2019 02:00:00 - - - - - -
20.05.2019 01:00:00 - - - - - -
20.05.2019 00:00:00 - - - - - -
19.05.2019 23:00:00 14,0 11,0 4 2 - 10
19.05.2019 22:00:00 15,0 12,0 4 2 - 10
19.05.2019 21:00:00 16,0 12,0 8 4 SSW 10
19.05.2019 20:00:00 17,0 12,0 5 3 S 10
19.05.2019 19:00:00 17,0 12,0 13 7 WSW 10
19.05.2019 18:00:00 19,0 12,0 21 11 W 10
19.05.2019 17:00:00 21,0 12,0 26 14 W 10
19.05.2019 16:00:00 21,0 12,0 26 14 W 10
19.05.2019 15:00:00 21,0 12,0 24 13 W 10
19.05.2019 14:00:00 21,0 13,0 24 13 W 10
19.05.2019 13:00:00 20,0 12,0 24 13 W 10
19.05.2019 12:00:00 21,0 11,0 21 11 W 10
19.05.2019 11:00:00 20,0 12,0 16 9 W 10
19.05.2019 10:00:00 19,0 13,0 11 6 W 10
19.05.2019 09:00:00 17,0 14,0 2 1 - 10
19.05.2019 08:00:00 14,0 13,0 2 1 - 10
19.05.2019 07:00:00 13,0 13,0 2 1 - 10
19.05.2019 06:00:00 - - - - - -
19.05.2019 05:00:00 - - - - - -
19.05.2019 04:00:00 - - - - - -
19.05.2019 03:00:00 - - - - - -
19.05.2019 02:00:00 - - - - - -
19.05.2019 01:00:00 - - - - - -
19.05.2019 00:00:00 - - - - - -
18.05.2019 23:00:00 16,0 14,0 15 8 NNE 10
18.05.2019 22:00:00 16,0 14,0 11 6 NNE 10
18.05.2019 21:00:00 17,0 14,0 15 8 NE 10
18.05.2019 20:00:00 18,0 14,0 9 5 ENE 10
18.05.2019 19:00:00 19,0 14,0 15 8 ESE 10
18.05.2019 18:00:00 20,0 14,0 15 8 ESE 10
18.05.2019 17:00:00 20,0 14,0 15 8 ESE 10
18.05.2019 16:00:00 20,0 14,0 13 7 SE 10
18.05.2019 15:00:00 20,0 14,0 18 10 ESE 10
18.05.2019 14:00:00 20,0 13,0 13 7 E 10
18.05.2019 13:00:00 19,0 13,0 22 12 ESE 10
18.05.2019 12:00:00 18,0 12,0 28 15 ESE 10
18.05.2019 11:00:00 18,0 11,0 13 7 - 10
18.05.2019 10:00:00 18,0 8,0 9 5 ENE 10
18.05.2019 09:00:00 18,0 5,0 8 4 - 10
18.05.2019 08:00:00 18,0 4,0 13 7 ENE 10
18.05.2019 07:00:00 18,0 4,0 11 6 E 10
18.05.2019 06:00:00 - - - - - -
18.05.2019 05:00:00 - - - - - -
18.05.2019 04:00:00 - - - - - -
18.05.2019 03:00:00 - - - - - -
18.05.2019 02:00:00 - - - - - -
18.05.2019 01:00:00 - - - - - -
18.05.2019 00:00:00 - - - - - -
17.05.2019 23:00:00 13,0 10,0 2 1 - 10
17.05.2019 22:00:00 15,0 8,0 4 2 - 10
17.05.2019 21:00:00 16,0 9,0 11 6 E 10
17.05.2019 20:00:00 18,0 9,0 5 3 SSE 10
17.05.2019 19:00:00 20,0 8,0 9 5 S 10
17.05.2019 18:00:00 20,0 8,0 13 7 SSW 10
17.05.2019 17:00:00 21,0 7,0 13 7 SSW 10
17.05.2019 16:00:00 21,0 9,0 18 10 SW 10
17.05.2019 15:00:00 22,0 11,0 21 11 SW 10
17.05.2019 14:00:00 21,0 11,0 13 7 SSW 10
17.05.2019 13:00:00 20,0 11,0 15 8 W 10
17.05.2019 12:00:00 20,0 11,0 15 8 WSW 10
17.05.2019 11:00:00 19,0 10,0 8 4 - 10
17.05.2019 10:00:00 18,0 10,0 8 4 WSW 10
17.05.2019 09:00:00 16,0 9,0 5 3 NNE 10
17.05.2019 08:00:00 14,0 10,0 5 3 NE 10
17.05.2019 07:00:00 10,0 8,0 8 4 E 10
17.05.2019 06:00:00 - - - - - -
17.05.2019 05:00:00 - - - - - -
17.05.2019 04:00:00 - - - - - -
17.05.2019 03:00:00 - - - - - -
17.05.2019 02:00:00 - - - - - -
17.05.2019 01:00:00 - - - - - -
17.05.2019 00:00:00 - - - - - -
16.05.2019 23:00:00 11,0 9,0 5 3 NNE 10
16.05.2019 22:00:00 12,0 9,0 8 4 E 10
16.05.2019 21:00:00 13,0 9,0 5 3 N 10
16.05.2019 20:00:00 15,0 9,0 13 7 N 10
16.05.2019 19:00:00 16,0 9,0 21 11 N 10
16.05.2019 18:00:00 15,0 9,0 21 11 NNE 10
16.05.2019 17:00:00 14,0 9,0 21 11 NNE 10
16.05.2019 16:00:00 15,0 11,0 11 6 WNW 10
16.05.2019 15:00:00 13,0 10,0 24 13 W 10
16.05.2019 14:00:00 17,0 6,0 28 15 W 10
16.05.2019 13:00:00 17,0 7,0 26 14 W 10
16.05.2019 12:00:00 16,0 8,0 26 14 W 10
16.05.2019 11:00:00 16,0 10,0 18 10 WNW 10
16.05.2019 10:00:00 15,0 12,0 11 6 WNW 10
16.05.2019 09:00:00 13,0 12,0 8 4 W 10
16.05.2019 08:00:00 13,0 13,0 21 11 W 1,0
16.05.2019 07:00:00 13,0 13,0 16 9 S 8
16.05.2019 06:00:00 - - - - - -
16.05.2019 05:00:00 - - - - - -
16.05.2019 04:00:00 - - - - - -
16.05.2019 03:00:00 - - - - - -
16.05.2019 02:00:00 - - - - - -
16.05.2019 01:00:00 - - - - - -
16.05.2019 00:00:00 - - - - - -
15.05.2019 23:00:00 14,0 13,0 4 2 - 10
15.05.2019 22:00:00 14,0 12,0 9 5 W 10
15.05.2019 21:00:00 15,0 12,0 9 5 WSW 10
15.05.2019 20:00:00 15,0 12,0 15 8 W 10
15.05.2019 19:00:00 16,0 12,0 21 11 WSW 10
15.05.2019 18:00:00 17,0 12,0 22 12 W 10
15.05.2019 17:00:00 18,0 10,0 21 11 W 10
15.05.2019 16:00:00 17,0 11,0 22 12 W 10

tt = temperature
td = dewpoint
ff = wind speed
dd = wind direction
vv = visibility

Next stations